Time;durP1;ratioP1;P1;durP2;ratioP2;P2;SDS_P1;SDS_P2;PMS_P1;PMS_P2;Temp;Humidity;BMP_temperature;BMP_pressure;BME280_temperature;BME280_humidity;BME280_pressure;Samples;Min_cycle;Max_cycle;Signal;HPM_P1;HPM_P2
2021/08/05 00:02:12;;;;;;;;;7.25;6.25;;;;;20.41;100.00;100928.63;5117940;27;45418;-70
2021/08/05 00:07:59;;;;;;;;;8.00;7.00;;;;;20.26;100.00;100914.31;5118081;27;45309;-70
2021/08/05 00:10:25;;;;;;;;;7.50;7.25;;;;;20.30;100.00;100909.72;5117682;27;46184;-71
2021/08/05 00:12:51;;;;;;;;;9.00;7.00;;;;;20.26;100.00;100903.72;5117768;27;45586;-70
2021/08/05 00:15:16;;;;;;;;;7.25;6.25;;;;;20.19;100.00;100892.56;5117879;27;45402;-70
2021/08/05 00:17:41;;;;;;;;;7.00;7.00;;;;;20.19;100.00;100897.03;5117952;27;45395;-70
2021/08/05 00:20:07;;;;;;;;;8.50;7.00;;;;;20.21;100.00;100897.78;5117638;27;46368;-70
2021/08/05 00:22:32;;;;;;;;;7.00;6.00;;;;;20.23;100.00;100895.06;5119370;27;45415;-70
2021/08/05 00:24:58;;;;;;;;;8.25;7.75;;;;;20.17;100.00;100898.91;5121526;27;45976;-69
2021/08/05 00:27:24;;;;;;;;;8.75;4.75;;;;;20.19;100.00;100905.81;5121473;27;45272;-70
2021/08/05 00:29:49;;;;;;;;;7.00;7.00;;;;;20.12;100.00;100895.59;5120927;27;46304;-69
2021/08/05 00:32:15;;;;;;;;;11.00;7.25;;;;;20.15;100.00;100898.13;5121180;27;45292;-70
2021/08/05 00:38:02;;;;;;;;;7.25;6.00;;;;;20.11;100.00;100893.88;5121376;27;45408;-70
2021/08/05 00:40:27;;;;;;;;;8.00;6.25;;;;;20.10;100.00;100893.03;5120957;27;46495;-69
2021/08/05 00:42:53;;;;;;;;;4.00;3.00;;;;;20.09;100.00;100893.09;5121218;27;45437;-70
2021/08/05 00:45:19;;;;;;;;;7.00;7.00;;;;;20.08;100.00;100891.41;5120974;27;45347;-70
2021/08/05 00:47:44;;;;;;;;;11.75;8.75;;;;;20.07;100.00;100884.38;5120994;27;45370;-70
2021/08/05 00:53:32;;;;;;;;;8.25;7.75;;;;;20.07;100.00;100892.34;5118953;27;45465;-70
2021/08/05 00:55:57;;;;;;;;;9.25;8.25;;;;;20.04;100.00;100887.19;5120725;27;45400;-70
2021/08/05 00:58:22;;;;;;;;;10.25;8.25;;;;;20.03;100.00;100888.97;5120879;27;45479;-70
2021/08/05 01:00:50;;;;;;;;;9.50;9.00;;;;;19.99;100.00;100879.47;5120275;27;47076;-70
2021/08/05 01:03:28;;;;;;;;;10.00;9.50;;;;;20.01;100.00;100887.34;5120658;27;45488;-69
2021/08/05 01:06:31;;;;;;;;;6.00;5.00;;;;;20.03;100.00;100883.69;5120897;27;45207;-69
2021/08/05 01:09:03;;;;;;;;;8.00;8.00;;;;;20.03;100.00;100869.56;5121126;27;45362;-69
2021/08/05 01:11:37;;;;;;;;;10.50;8.50;;;;;19.99;100.00;100868.03;5120441;27;46416;-69
2021/08/05 01:14:05;;;;;;;;;9.75;9.50;;;;;20.02;100.00;100874.03;5120461;27;45632;-69
2021/08/05 01:16:34;;;;;;;;;10.00;9.00;;;;;20.01;100.00;100867.00;5120590;27;45357;-69
2021/08/05 01:19:13;;;;;;;;;8.25;7.50;;;;;20.03;100.00;100875.72;5120743;27;45440;-69
2021/08/05 01:22:04;;;;;;;;;12.00;10.75;;;;;20.00;100.00;100867.09;5120100;27;45651;-69
2021/08/05 01:24:34;;;;;;;;;9.00;8.00;;;;;19.97;100.00;100864.59;5120277;27;45507;-69
2021/08/05 01:27:01;;;;;;;;;9.50;9.00;;;;;20.02;100.00;100876.66;5120503;27;45432;-69
2021/08/05 01:29:28;;;;;;;;;10.50;10.00;;;;;20.02;100.00;100873.16;5120623;27;45234;-68
2021/08/05 01:31:54;;;;;;;;;8.75;8.25;;;;;20.01;100.00;100872.31;5120156;27;47183;-69
2021/08/05 01:34:22;;;;;;;;;9.00;8.00;;;;;20.00;100.00;100869.75;5119071;27;45248;-69
2021/08/05 01:36:49;;;;;;;;;9.00;8.25;;;;;19.94;100.00;100864.75;5120244;27;45389;-69
2021/08/05 01:39:17;;;;;;;;;10.50;10.00;;;;;19.98;100.00;100877.78;5120716;27;45313;-68
2021/08/05 01:41:43;;;;;;;;;9.00;9.00;;;;;19.94;100.00;100864.75;5120264;27;45296;-68
2021/08/05 01:44:11;;;;;;;;;13.00;10.00;;;;;19.95;100.00;100863.81;5119885;27;45265;-67
2021/08/05 01:46:37;;;;;;;;;9.50;9.50;;;;;19.96;100.00;100857.59;5120132;27;45400;-69
2021/08/05 01:49:03;;;;;;;;;11.50;11.00;;;;;19.95;100.00;100856.72;5120429;27;45344;-70
2021/08/05 01:51:29;;;;;;;;;9.25;7.00;;;;;19.79;100.00;100824.84;5120162;27;46622;-70
2021/08/05 01:53:55;;;;;;;;;13.00;12.00;;;;;19.78;100.00;100816.97;5119740;27;45449;-69
2021/08/05 01:56:24;;;;;;;;;12.50;10.00;;;;;19.95;100.00;100846.13;5120035;27;45381;-69
2021/08/05 01:58:51;;;;;;;;;10.00;9.00;;;;;19.95;100.00;100848.78;5120041;27;45498;-70
2021/08/05 02:01:18;;;;;;;;;11.00;9.75;;;;;19.96;100.00;100847.84;5119708;27;46110;-69
2021/08/05 02:04:06;;;;;;;;;11.50;11.50;;;;;19.86;100.00;100826.22;5119543;27;45650;-68
2021/08/05 02:06:38;;;;;;;;;13.50;12.50;;;;;19.93;100.00;100836.53;5120086;27;45326;-70
2021/08/05 02:09:12;;;;;;;;;13.25;12.00;;;;;19.86;100.00;100831.53;5120124;27;45260;-69
2021/08/05 02:11:42;;;;;;;;;11.50;10.00;;;;;19.87;100.00;100825.31;5101113;27;48377;-69
2021/08/05 02:14:10;;;;;;;;;12.25;12.00;;;;;19.79;100.00;100803.66;5119495;27;45588;-68
2021/08/05 02:16:38;;;;;;;;;13.75;12.00;;;;;19.91;100.00;100827.78;5119908;27;45374;-69
2021/08/05 02:19:04;;;;;;;;;12.75;11.50;;;;;19.94;100.00;100830.31;5119909;27;45330;-69
2021/08/05 02:21:30;;;;;;;;;15.00;13.00;;;;;19.91;100.00;100825.13;5119379;27;46640;-69
2021/08/05 02:23:59;;;;;;;;;14.75;12.50;;;;;19.94;100.00;100832.97;5119388;27;45430;-70
2021/08/05 02:26:25;;;;;;;;;12.75;11.75;;;;;19.92;100.00;100830.38;5119492;27;45271;-71
2021/08/05 02:28:51;;;;;;;;;12.50;12.00;;;;;19.93;100.00;100826.81;5119653;27;45449;-70
2021/08/05 02:31:18;;;;;;;;;16.50;12.75;;;;;19.91;100.00;100833.94;5119720;27;45351;-70
2021/08/05 02:33:45;;;;;;;;;12.00;11.50;;;;;19.92;100.00;100829.53;5119701;27;45414;-70
2021/08/05 02:36:11;;;;;;;;;10.50;10.00;;;;;19.88;100.00;100819.06;5119751;27;45354;-69
2021/08/05 02:38:37;;;;;;;;;12.00;11.00;;;;;19.85;100.00;100811.28;5119555;27;45583;-69
2021/08/05 02:41:05;;;;;;;;;13.75;12.75;;;;;19.85;100.00;100816.56;5119128;27;46240;-70
2021/08/05 02:43:32;;;;;;;;;14.75;12.50;;;;;19.87;100.00;100819.16;5119266;27;45683;-70
2021/08/05 02:45:59;;;;;;;;;11.75;9.25;;;;;19.83;100.00;100810.50;5118909;27;45432;-70
2021/08/05 02:48:25;;;;;;;;;15.75;13.75;;;;;19.84;100.00;100817.50;5119263;27;45349;-70
2021/08/05 02:54:15;;;;;;;;;13.75;12.75;;;;;19.83;100.00;100815.78;5117764;27;45413;-69
2021/08/05 02:56:41;;;;;;;;;11.75;11.00;;;;;19.78;100.00;100809.88;5119170;27;45299;-69
2021/08/05 02:59:07;;;;;;;;;10.75;10.75;;;;;19.74;100.00;100803.03;5119286;27;45359;-70
2021/08/05 03:01:34;;;;;;;;;13.00;11.50;;;;;19.80;100.00;100815.97;5118747;27;47216;-70
2021/08/05 03:03:59;;;;;;;;;12.00;11.00;;;;;19.81;100.00;100817.66;5118766;27;45285;-70
2021/08/05 03:06:27;;;;;;;;;13.50;11.50;;;;;19.81;100.00;100811.50;5118937;27;45772;-70
2021/08/05 03:08:53;;;;;;;;;11.75;10.50;;;;;19.78;100.00;100807.25;5118907;27;45341;-70
2021/08/05 03:11:19;;;;;;;;;12.25;10.25;;;;;19.78;100.00;100807.25;5118700;27;46643;-70
2021/08/05 03:13:44;;;;;;;;;12.00;11.50;;;;;19.78;100.00;100812.53;5118700;27;45355;-70
2021/08/05 03:16:11;;;;;;;;;12.75;11.75;;;;;19.77;100.00;100804.66;5118757;27;45438;-69
2021/08/05 03:18:37;;;;;;;;;11.75;10.75;;;;;19.77;100.00;100802.03;5118844;27;45418;-70
2021/08/05 03:24:24;;;;;;;;;11.00;10.25;;;;;19.73;100.00;100800.47;5118405;27;45440;-70
2021/08/05 03:26:49;;;;;;;;;1.75;0.50;;;;;19.64;100.00;100792.97;5119061;27;45242;-70
2021/08/05 03:29:14;;;;;;;;;12.25;12.25;;;;;19.70;100.00;100804.13;5118765;27;45289;-70
2021/08/05 03:31:40;;;;;;;;;11.25;10.25;;;;;19.71;100.00;100800.56;5118706;27;46597;-69
2021/08/05 03:34:05;;;;;;;;;13.00;12.00;;;;;19.69;100.00;100781.22;5118312;27;45274;-71
2021/08/05 03:36:31;;;;;;;;;9.75;9.25;;;;;19.66;100.00;100776.06;5118720;27;45310;-70
2021/08/05 03:38:56;;;;;;;;;17.00;11.00;;;;;19.67;100.00;100784.88;5118760;27;45329;-70
2021/08/05 03:41:21;;;;;;;;;11.00;9.50;;;;;19.62;100.00;100774.50;5118052;27;46336;-69
2021/08/05 03:43:47;;;;;;;;;11.00;9.50;;;;;19.61;100.00;100771.94;5118230;27;45207;-69
2021/08/05 03:46:12;;;;;;;;;12.25;11.75;;;;;19.66;100.00;100791.97;5118373;27;45208;-70
2021/08/05 03:48:37;;;;;;;;;11.00;11.00;;;;;19.65;100.00;100782.28;5118459;27;45334;-70
2021/08/05 03:54:24;;;;;;;;;13.50;13.50;;;;;19.63;100.00;100778.88;5117467;27;45403;-69
2021/08/05 03:56:50;;;;;;;;;15.00;13.00;;;;;19.58;100.00;100778.25;5100351;27;45441;-70
2021/08/05 03:59:15;;;;;;;;;11.00;11.00;;;;;19.58;100.00;100771.16;5121861;27;45492;-70
2021/08/05 04:01:41;;;;;;;;;13.50;12.00;;;;;19.53;100.00;100773.19;5121667;27;45339;-69
2021/08/05 04:04:06;;;;;;;;;11.00;10.00;;;;;19.60;100.00;100772.88;5121572;27;45433;-70
2021/08/05 04:06:31;;;;;;;;;10.25;10.25;;;;;19.57;100.00;100765.94;5121600;27;45202;-68
2021/08/05 04:08:57;;;;;;;;;16.75;11.00;;;;;19.58;100.00;100760.56;5121945;27;45318;-69
2021/08/05 04:11:22;;;;;;;;;10.75;9.75;;;;;19.56;100.00;100767.75;5121679;27;45195;-69
2021/08/05 04:13:47;;;;;;;;;12.75;11.00;;;;;19.56;100.00;100774.84;5121797;27;45212;-69
2021/08/05 04:16:13;;;;;;;;;11.50;11.50;;;;;19.47;100.00;100769.97;5121640;27;45289;-69
2021/08/05 04:18:39;;;;;;;;;13.00;11.00;;;;;19.49;100.00;100770.75;5122110;27;45197;-67
2021/08/05 04:24:25;;;;;;;;;13.00;11.50;;;;;19.45;100.00;100767.38;5121152;27;45564;-69
2021/08/05 04:26:51;;;;;;;;;12.75;12.00;;;;;19.51;100.00;100776.84;5121511;27;45336;-68
2021/08/05 04:29:16;;;;;;;;;12.25;12.00;;;;;19.50;100.00;100769.81;5121962;27;45306;-69
2021/08/05 04:31:41;;;;;;;;;14.25;14.00;;;;;19.50;100.00;100775.13;5121446;27;46289;-69
2021/08/05 04:34:07;;;;;;;;;12.00;11.00;;;;;19.45;100.00;100764.72;5121510;27;45391;-69
2021/08/05 04:36:32;;;;;;;;;11.00;11.00;;;;;19.52;100.00;100776.75;5121495;27;45304;-70
2021/08/05 04:38:57;;;;;;;;;14.50;12.50;;;;;19.47;100.00;100765.53;5121626;27;45284;-69
2021/08/05 04:41:23;;;;;;;;;13.50;12.50;;;;;19.49;100.00;100768.97;5102506;27;47185;-69
2021/08/05 04:43:48;;;;;;;;;13.50;13.50;;;;;19.50;100.00;100773.31;5121018;27;45298;-69
2021/08/05 04:46:13;;;;;;;;;15.00;13.25;;;;;19.49;100.00;100768.97;5121341;27;45173;-69
2021/08/05 04:48:39;;;;;;;;;12.75;11.25;;;;;19.51;100.00;100760.94;5121500;27;45219;-68
2021/08/05 04:54:26;;;;;;;;;12.50;10.00;;;;;19.49;100.00;100768.09;5120694;27;45327;-68
2021/08/05 04:56:52;;;;;;;;;15.75;13.25;;;;;19.49;100.00;100784.84;5120807;27;45219;-69
2021/08/05 04:59:17;;;;;;;;;11.75;11.50;;;;;19.51;100.00;100787.44;5121010;27;45270;-70
2021/08/05 05:01:43;;;;;;;;;14.25;12.50;;;;;19.43;100.00;100784.28;5120853;27;46332;-69
2021/08/05 05:04:10;;;;;;;;;15.00;14.25;;;;;19.48;100.00;100800.81;5120549;27;45683;-66
2021/08/05 05:06:39;;;;;;;;;13.50;13.50;;;;;19.43;100.00;100801.03;5120779;27;45372;-70
2021/08/05 05:09:05;;;;;;;;;11.50;11.50;;;;;19.35;100.00;100797.91;5120948;27;45478;-70
2021/08/05 05:11:30;;;;;;;;;14.00;12.50;;;;;19.28;100.00;100792.06;5120464;27;47367;-69
2021/08/05 05:13:56;;;;;;;;;13.25;11.25;;;;;19.19;100.00;100786.34;5120800;27;45316;-70
2021/08/05 05:16:22;;;;;;;;;14.00;12.00;;;;;19.20;100.00;100798.66;5120379;27;45344;-71
2021/08/05 05:18:48;;;;;;;;;11.75;11.00;;;;;19.15;100.00;100788.31;5121068;27;45301;-69
2021/08/05 05:24:35;;;;;;;;;15.00;14.00;;;;;19.13;100.00;100782.22;5120164;27;45443;-69
2021/08/05 05:27:00;;;;;;;;;12.25;11.75;;;;;19.14;100.00;100777.78;5120488;27;45388;-67
2021/08/05 05:29:25;;;;;;;;;13.00;12.75;;;;;19.19;100.00;100783.72;5120523;27;45338;-69
2021/08/05 05:31:51;;;;;;;;;14.75;12.75;;;;;19.22;100.00;100786.22;5120400;27;45899;-68
2021/08/05 05:34:16;;;;;;;;;14.00;13.00;;;;;19.23;100.00;100783.47;5120401;27;45301;-68
2021/08/05 05:40:04;;;;;;;;;14.25;12.00;;;;;19.27;100.00;100793.00;5120336;27;45333;-69
2021/08/05 05:42:30;;;;;;;;;17.00;13.00;;;;;19.30;100.00;100793.78;5120136;27;47126;-67
2021/08/05 05:44:56;;;;;;;;;12.00;12.00;;;;;19.31;100.00;100790.22;5119637;27;45376;-67
2021/08/05 05:47:21;;;;;;;;;15.25;12.25;;;;;19.34;100.00;100796.19;5120243;27;45168;-67
2021/08/05 05:49:48;;;;;;;;;14.75;13.25;;;;;19.41;100.00;100794.09;5120109;27;45355;-67
2021/08/05 05:52:13;;;;;;;;;13.50;12.00;;;;;19.44;100.00;100808.03;5119921;27;46294;-67
2021/08/05 05:54:39;;;;;;;;;12.00;12.00;;;;;19.39;100.00;100790.66;5119665;27;46341;-65
2021/08/05 05:57:05;;;;;;;;;13.50;12.25;;;;;19.39;100.00;100802.13;5120191;27;45203;-66
2021/08/05 05:59:30;;;;;;;;;14.25;12.25;;;;;19.37;100.00;100797.84;5120068;27;45446;-66
2021/08/05 06:01:56;;;;;;;;;13.25;12.50;;;;;19.39;100.00;100801.25;5119642;27;46894;-66
2021/08/05 06:04:21;;;;;;;;;11.00;11.00;;;;;19.38;100.00;100808.34;5119716;27;45368;-64
2021/08/05 06:10:10;;;;;;;;;13.50;12.50;;;;;19.36;100.00;100819.94;5119777;27;45328;-66
2021/08/05 06:12:36;;;;;;;;;13.50;13.00;;;;;19.26;100.00;100801.03;5119636;27;45499;-67
2021/08/05 06:15:01;;;;;;;;;13.25;12.00;;;;;19.29;100.00;100814.13;5119335;27;45207;-67
2021/08/05 06:17:27;;;;;;;;;14.50;13.50;;;;;19.33;100.00;100818.31;5119643;27;45368;-67
2021/08/05 06:19:52;;;;;;;;;14.50;12.25;;;;;19.37;100.00;100822.53;5118652;27;45370;-67
2021/08/05 06:22:17;;;;;;;;;10.50;10.50;;;;;19.38;100.00;100818.09;5119129;27;46450;-67
2021/08/05 06:24:42;;;;;;;;;12.00;12.00;;;;;19.43;100.00;100824.84;5119079;27;45400;-68
2021/08/05 06:27:09;;;;;;;;;14.50;13.75;;;;;19.39;100.00;100812.72;5119552;27;45300;-69
2021/08/05 06:29:34;;;;;;;;;12.50;12.50;;;;;19.48;100.00;100820.22;5119740;27;45323;-69
2021/08/05 06:32:00;;;;;;;;;14.25;13.00;;;;;19.49;100.00;100818.44;5119200;27;45443;-69
2021/08/05 06:34:25;;;;;;;;;13.50;12.25;;;;;19.49;100.00;100821.06;5100460;27;45333;-68
2021/08/05 06:40:13;;;;;;;;;14.50;12.00;;;;;19.57;100.00;100797.72;5119281;27;45361;-69
2021/08/05 06:42:38;;;;;;;;;12.50;12.00;;;;;19.73;100.00;100813.72;5119185;27;46348;-68
2021/08/05 06:45:06;;;;;;;;;13.75;12.00;;;;;19.79;100.00;100808.09;5118837;27;45338;-67
2021/08/05 06:47:33;;;;;;;;;12.25;10.75;;;;;19.89;100.00;100807.53;5119403;27;45236;-68
2021/08/05 06:49:59;;;;;;;;;14.00;11.75;;;;;20.03;100.00;100808.63;5119255;27;45286;-68
2021/08/05 06:52:24;;;;;;;;;18.00;14.75;;;;;20.12;100.00;100808.97;5118783;27;46997;-68
2021/08/05 06:54:49;;;;;;;;;14.25;12.75;;;;;20.19;100.00;100798.91;5118686;27;45281;-67
2021/08/05 06:57:15;;;;;;;;;14.50;14.25;;;;;20.33;100.00;100803.47;5119162;27;45200;-69
2021/08/05 06:59:40;;;;;;;;;14.25;12.25;;;;;20.39;100.00;100811.13;5119200;27;45213;-67
2021/08/05 07:02:06;;;;;;;;;14.25;13.00;;;;;20.43;100.00;100802.09;5119002;27;45618;-67
2021/08/05 07:04:31;;;;;;;;;12.25;11.50;;;;;20.48;100.00;100808.84;5118964;27;45570;-67
2021/08/05 07:10:19;;;;;;;;;15.75;13.75;;;;;20.50;100.00;100814.06;5118889;27;45310;-68
2021/08/05 07:12:44;;;;;;;;;15.00;13.50;;;;;20.41;100.00;100804.81;5118881;27;45219;-68
2021/08/05 07:15:10;;;;;;;;;14.75;13.75;;;;;20.31;100.00;100790.28;5118801;27;45271;-68
2021/08/05 07:17:37;;;;;;;;;15.50;13.75;;;;;20.48;100.00;100808.00;5118860;27;45365;-69
2021/08/05 07:20:03;;;;;;;;;15.50;13.00;;;;;20.37;100.00;100787.34;5118768;27;45452;-69
2021/08/05 07:22:28;;;;;;;;;16.00;13.25;;;;;20.56;100.00;100808.41;5118745;27;46316;-69
2021/08/05 07:24:53;;;;;;;;;1.50;1.00;;;;;20.66;100.00;100807.00;5118595;27;45377;-69
2021/08/05 07:27:19;;;;;;;;;15.00;13.75;;;;;20.84;100.00;100814.88;5118932;27;45449;-71
2021/08/05 07:29:45;;;;;;;;;15.75;15.00;;;;;20.93;100.00;100806.38;5118789;27;45349;-68
2021/08/05 07:32:10;;;;;;;;;13.50;12.00;;;;;21.02;100.00;100809.38;5121195;27;46121;-67
2021/08/05 07:34:35;;;;;;;;;13.50;13.50;;;;;21.16;100.00;100811.25;5122081;27;45278;-68
2021/08/05 07:40:23;;;;;;;;;16.25;14.25;;;;;21.34;100.00;100807.59;5122212;27;45375;-69
2021/08/05 07:42:48;;;;;;;;;17.75;16.75;;;;;21.39;100.00;100816.13;5122040;27;45589;-70
2021/08/05 07:45:14;;;;;;;;;17.25;15.00;;;;;21.37;100.00;100801.22;5121683;27;45418;-67
2021/08/05 07:47:39;;;;;;;;;15.00;13.75;;;;;21.42;100.00;100801.81;5122287;27;45352;-67
2021/08/05 07:50:06;;;;;;;;;16.75;16.50;;;;;21.50;100.00;100801.34;5121893;27;45369;-68
2021/08/05 07:52:32;;;;;;;;;17.25;14.75;;;;;21.49;100.00;100789.88;5122047;27;45444;-68
2021/08/05 07:54:57;;;;;;;;;16.75;14.50;;;;;21.73;100.00;100800.88;5121600;27;45266;-68
2021/08/05 07:57:23;;;;;;;;;12.50;11.50;;;;;21.90;100.00;100800.69;5121801;27;45255;-68
2021/08/05 07:59:48;;;;;;;;;15.50;13.50;;;;;22.02;100.00;100775.19;5122195;27;45300;-68
2021/08/05 08:02:13;;;;;;;;;16.25;14.25;;;;;22.31;100.00;100803.53;5121758;27;46335;-67
2021/08/05 08:04:39;;;;;;;;;17.50;15.25;;;;;22.36;100.00;100794.41;5121532;27;45309;-67
2021/08/05 08:10:26;;;;;;;;;14.50;13.25;;;;;22.55;100.00;100789.63;5121788;27;45305;-68
2021/08/05 08:12:53;;;;;;;;;12.25;11.25;;;;;22.58;100.00;100786.78;5121515;27;46430;-69
2021/08/05 08:15:22;;;;;;;;;11.50;11.50;;;;;22.72;100.00;100792.09;5121647;27;45173;-68
2021/08/05 08:17:48;;;;;;;;;17.50;14.00;;;;;22.83;100.00;100797.59;5121420;27;45405;-68
2021/08/05 08:20:13;;;;;;;;;13.25;12.00;;;;;22.90;100.00;100785.63;5121761;27;45281;-68
2021/08/05 08:22:39;;;;;;;;;13.25;12.75;;;;;23.02;100.00;100775.09;5121236;27;45415;-68
2021/08/05 08:25:05;;;;;;;;;12.00;11.00;;;;;23.12;100.00;100774.41;5121472;27;45357;-69
2021/08/05 08:27:30;;;;;;;;;14.00;13.00;;;;;23.18;100.00;100778.47;5121403;27;45332;-69
2021/08/05 08:29:56;;;;;;;;;12.25;11.75;;;;;23.17;100.00;100768.78;5121582;27;45314;-67
2021/08/05 08:32:21;;;;;;;;;14.00;12.75;;;;;23.27;100.00;100769.84;5120966;27;45366;-69
2021/08/05 08:34:46;;;;;;;;;14.00;12.00;;;;;23.34;100.00;100755.19;5121456;27;45420;-69
2021/08/05 08:40:33;;;;;;;;;12.25;10.75;;;;;23.75;100.00;100762.19;5121225;27;45290;-69
2021/08/05 08:42:59;;;;;;;;;14.00;11.50;;;;;23.97;100.00;100765.06;5120138;27;46520;-69
2021/08/05 08:45:24;;;;;;;;;13.00;11.75;;;;;24.04;100.00;100753.03;5120805;27;45367;-69
2021/08/05 08:47:54;;;;;;;;;13.00;12.25;;;;;24.27;100.00;100774.56;5120906;27;45370;-69
2021/08/05 08:50:30;;;;;;;;;12.75;11.75;;;;;24.39;100.00;100763.03;5121134;27;45247;-69
2021/08/05 08:53:03;;;;;;;;;11.75;10.00;;;;;24.51;100.00;100756.00;5102639;27;46599;-69
2021/08/05 08:55:29;;;;;;;;;15.00;12.00;;;;;24.48;100.00;100751.72;5120494;27;45366;-69
2021/08/05 08:57:57;;;;;;;;;13.25;11.25;;;;;24.55;100.00;100758.31;5121143;27;45179;-69
2021/08/05 09:00:23;;;;;;;;;12.50;11.75;;;;;24.68;100.00;100764.50;5121041;27;45381;-68
2021/08/05 09:02:49;;;;;;;;;9.25;9.00;;;;;24.73;100.00;100751.66;5120758;27;45538;-68
2021/08/05 09:05:15;;;;;;;;;10.50;10.00;;;;;24.74;100.00;100761.38;5120447;27;45425;-67
2021/08/05 09:11:02;;;;;;;;;8.75;8.00;;;;;25.00;100.00;100753.28;5120710;27;45445;-68
2021/08/05 09:13:27;;;;;;;;;11.50;9.00;;;;;25.26;100.00;100748.66;5120159;27;46049;-68
2021/08/05 09:15:53;;;;;;;;;10.00;10.00;;;;;25.48;100.00;100745.19;5120263;27;45310;-67
2021/08/05 09:18:41;;;;;;;;;10.75;10.00;;;;;25.76;100.00;100752.81;5120693;27;45343;-68
2021/08/05 09:21:15;;;;;;;;;11.25;11.00;;;;;25.98;100.00;100756.50;5120476;27;45468;-68
2021/08/05 09:23:47;;;;;;;;;11.00;10.50;;;;;26.05;100.00;100763.09;5120363;27;46174;-67
2021/08/05 09:26:37;;;;;;;;;12.00;10.25;;;;;26.30;100.00;100752.16;5119979;27;45276;-68
2021/08/05 09:29:13;;;;;;;;;9.50;9.00;;;;;26.39;100.00;100748.75;5056867;28;45279;-68
2021/08/05 09:31:45;;;;;;;;;8.75;7.75;;;;;26.44;100.00;100754.59;5057305;28;45308;-69
2021/08/05 09:34:13;;;;;;;;;9.00;9.00;;;;;26.41;100.00;100752.16;5056700;28;46643;-67
2021/08/05 09:36:40;;;;;;;;;11.75;10.75;;;;;26.26;100.00;100745.34;5056537;28;45555;-69
2021/08/05 09:39:26;;;;;;;;;11.00;8.75;;;;;26.01;100.00;100748.22;5056733;28;45402;-67
2021/08/05 09:41:54;;;;;;;;;9.75;9.50;;;;;25.81;100.00;100749.81;5057013;28;45468;-69
2021/08/05 09:44:19;;;;;;;;;8.75;8.75;;;;;25.58;100.00;100751.56;5056580;28;46671;-67
2021/08/05 09:46:45;;;;;;;;;12.00;10.00;;;;;25.40;100.00;100739.59;5056498;28;45375;-68
2021/08/05 09:49:17;;;;;;;;;8.75;8.50;;;;;25.33;100.00;100741.84;5056923;28;45436;-67
2021/08/05 09:51:43;;;;;;;;;10.75;9.00;;;;;25.22;100.00;100736.50;5056546;28;45598;-67
2021/08/05 09:54:09;;;;;;;;;9.25;8.75;;;;;25.50;100.00;100738.75;5055531;28;46298;-67
2021/08/05 09:56:37;;;;;;;;;8.25;8.00;;;;;25.98;100.00;100725.25;5056188;28;45349;-68
2021/08/05 09:59:07;;;;;;;;;7.75;6.75;;;;;26.04;100.00;100718.59;5056348;28;45548;-67
2021/08/05 10:01:33;;;;;;;;;5.75;5.75;;;;;26.05;100.00;100731.00;5056733;28;45410;-67
2021/08/05 10:04:19;;;;;;;;;6.00;5.00;;;;;26.05;100.00;100723.81;5056000;28;46123;-67
2021/08/05 10:07:08;;;;;;;;;5.75;5.50;;;;;25.92;100.00;100731.09;5106073;27;45650;-67
2021/08/05 10:09:35;;;;;;;;;6.00;5.00;;;;;25.57;100.00;100725.75;5119550;27;45239;-66
2021/08/05 10:12:13;;;;;;;;;8.00;6.50;;;;;25.16;100.00;100713.75;5119732;27;45221;-67
2021/08/05 10:14:39;;;;;;;;;6.75;6.00;;;;;24.92;100.00;100711.09;5119793;27;46422;-68
2021/08/05 10:17:07;;;;;;;;;5.25;5.25;;;;;24.95;100.00;100715.34;5119207;27;45641;-67
2021/08/05 10:19:43;;;;;;;;;6.00;6.00;;;;;24.95;100.00;100712.66;5119856;27;45371;-68
2021/08/05 10:22:11;;;;;;;;;7.00;6.50;;;;;25.08;100.00;100707.28;5119783;27;45286;-66
2021/08/05 10:24:39;;;;;;;;;7.00;7.00;;;;;25.33;100.00;100712.47;5119052;27;46585;-67
2021/08/05 10:27:07;;;;;;;;;5.00;5.00;;;;;25.44;100.00;100692.94;5119284;27;45441;-67
2021/08/05 10:29:34;;;;;;;;;4.00;4.00;;;;;26.19;100.00;100695.94;5119254;27;45296;-67
2021/08/05 10:32:00;;;;;;;;;1.00;0.00;;;;;26.62;100.00;100692.47;5119687;27;45260;-67
2021/08/05 10:34:26;;;;;;;;;3.00;3.00;;;;;27.89;100.00;100687.97;5119114;27;47331;-67
2021/08/05 10:36:52;;;;;;;;;3.00;2.25;;;;;29.12;100.00;100682.16;5119058;27;45287;-67
2021/08/05 10:39:18;;;;;;;;;4.25;4.25;;;;;29.76;100.00;100688.72;5119251;27;45347;-67
2021/08/05 10:41:43;;;;;;;;;4.50;4.50;;;;;29.28;100.00;100682.44;5119695;27;45325;-67
2021/08/05 10:44:09;;;;;;;;;4.50;4.50;;;;;28.56;100.00;100684.66;5118939;27;47290;-67
2021/08/05 10:46:35;;;;;;;;;5.50;4.00;;;;;27.66;100.00;100671.19;5118773;27;45507;-67
2021/08/05 10:49:05;;;;;;;;;6.00;5.00;;;;;27.18;100.00;100685.13;5119383;27;45307;-67
2021/08/05 10:51:35;;;;;;;;;3.50;2.50;;;;;28.02;100.00;100680.50;5119460;27;45285;-67
2021/08/05 10:54:00;;;;;;;;;3.50;3.50;;;;;28.82;99.39;100671.53;5118858;27;46507;-68
2021/08/05 10:56:30;;;;;;;;;3.50;3.25;;;;;28.38;99.40;100675.56;5118647;27;45420;-67
2021/08/05 10:59:13;;;;;;;;;4.00;4.00;;;;;27.83;100.00;100675.06;5118887;27;45359;-67
2021/08/05 11:01:55;;;;;;;;;4.00;3.25;;;;;27.59;100.00;100662.75;5119183;27;45460;-67
2021/08/05 11:04:33;;;;;;;;;3.25;3.25;;;;;27.81;100.00;100661.78;5118493;27;46240;-67
2021/08/05 11:07:33;;;;;;;;;6.50;5.25;;;;;30.31;96.53;100654.59;5118168;27;45399;-67
2021/08/05 11:10:24;;;;;;;;;3.25;3.00;;;;;33.21;87.23;100640.34;5118565;27;45440;-66
2021/08/05 11:12:51;;;;;;;;;3.00;2.50;;;;;34.76;75.53;100637.88;5118757;27;45525;-67
2021/08/05 11:15:19;;;;;;;;;3.25;3.00;;;;;34.74;72.26;100636.38;5118330;27;46887;-65
2021/08/05 11:18:15;;;;;;;;;4.50;4.00;;;;;35.18;69.22;100641.97;5118764;27;45447;-67
2021/08/05 11:20:51;;;;;;;;;2.50;2.50;;;;;34.56;63.99;100628.53;5118749;27;45348;-66
2021/08/05 11:23:31;;;;;;;;;2.00;2.00;;;;;34.14;72.80;100635.19;5118845;27;45301;-66
2021/08/05 11:25:57;;;;;;;;;3.00;3.00;;;;;33.41;71.26;100632.72;5118262;27;46486;-67
2021/08/05 11:28:27;;;;;;;;;4.00;4.00;;;;;32.39;69.28;100627.78;5118617;27;45354;-65
2021/08/05 11:31:00;;;;;;;;;3.00;3.00;;;;;31.46;73.11;100641.19;5118680;27;45298;-67
2021/08/05 11:33:40;;;;;;;;;3.25;3.25;;;;;30.43;76.25;100625.59;5118688;27;45413;-67
2021/08/05 11:39:49;;;;;;;;;3.00;3.00;;;;;28.86;84.77;100617.38;5118298;27;45376;-66
2021/08/05 11:42:19;;;;;;;;;3.75;2.50;;;;;28.44;86.42;100619.44;5118504;27;45285;-68
2021/08/05 11:44:56;;;;;;;;;2.25;2.25;;;;;28.20;88.22;100611.75;5118399;27;45334;-68
2021/08/05 11:47:23;;;;;;;;;2.50;1.50;;;;;28.43;90.23;100606.16;5118048;27;46612;-68
2021/08/05 11:49:58;;;;;;;;;1.25;1.00;;;;;28.79;85.45;100589.34;5118090;27;45596;-68
2021/08/05 11:55:47;;;;;;;;;2.00;2.00;;;;;28.56;85.30;100598.69;5116530;27;45684;-67
2021/08/05 11:58:13;;;;;;;;;2.00;2.00;;;;;28.65;86.83;100595.16;5118231;27;46395;-69
2021/08/05 12:00:42;;;;;;;;;2.00;2.00;;;;;28.94;88.31;100606.75;5117856;27;45301;-68
2021/08/05 12:03:12;;;;;;;;;1.00;1.00;;;;;29.34;86.83;100594.06;5118183;27;45392;-66
2021/08/05 12:05:48;;;;;;;;;1.00;1.00;;;;;30.25;84.55;100587.88;5118077;27;45514;-67
2021/08/05 12:11:35;;;;;;;;;2.75;2.25;;;;;32.42;78.20;100586.91;5117870;27;45503;-69
2021/08/05 12:14:04;;;;;;;;;2.00;2.00;;;;;32.71;77.49;100591.81;5117818;27;45306;-68
2021/08/05 12:16:30;;;;;;;;;2.75;2.00;;;;;32.73;77.79;100573.56;5118264;27;45398;-69
2021/08/05 12:18:56;;;;;;;;;3.00;3.00;;;;;33.11;77.37;100575.59;5120038;27;46533;-69
2021/08/05 12:21:21;;;;;;;;;2.00;2.00;;;;;33.67;76.16;100576.44;5121412;27;45346;-68